createdAt,value
2022-10-06T00:01:33.181Z,101380.91
2022-10-06T00:04:02.901Z,101379.13
2022-10-06T00:06:32.874Z,101390.63
2022-10-06T00:09:02.041Z,101393.53
2022-10-06T00:11:30.834Z,101406.34
2022-10-06T00:14:00.356Z,101416.44
2022-10-06T00:16:31.211Z,101421.78
2022-10-06T00:19:01.463Z,101424.94
2022-10-06T00:21:31.328Z,101434.19
2022-10-06T00:24:00.622Z,101434.44
2022-10-06T00:26:29.778Z,101434.66
2022-10-06T00:29:00.031Z,101440.69
2022-10-06T00:31:31.388Z,101463.09
2022-10-06T00:34:01.827Z,101458.22
2022-10-06T00:36:30.621Z,101470.41
2022-10-06T00:38:59.903Z,101465.28
2022-10-06T00:41:29.789Z,101474.34
2022-10-06T00:43:59.774Z,101478.03
2022-10-06T00:46:38.985Z,101483.84
2022-10-06T00:49:14.312Z,101486.13
2022-10-06T00:51:47.223Z,101481.84
2022-10-06T00:54:18.026Z,101489.72
2022-10-06T00:56:48.034Z,101492.22
2022-10-06T00:59:19.832Z,101499.28
2022-10-06T01:01:58.363Z,101502.97
2022-10-06T01:04:28.846Z,101499.31
2022-10-06T01:07:01.374Z,101507.34
2022-10-06T01:09:32.601Z,101510.47
2022-10-06T01:12:05.445Z,101506.34
2022-10-06T01:14:37.369Z,101515.84
2022-10-06T01:17:13.850Z,101522.00
2022-10-06T01:19:53.933Z,101524.50
2022-10-06T01:22:31.611Z,101531.94
2022-10-06T01:25:01.054Z,101536.88
2022-10-06T01:27:32.831Z,101528.50
2022-10-06T01:30:03.342Z,101535.91
2022-10-06T01:32:37.274Z,101538.00
2022-10-06T01:35:07.867Z,101532.00
2022-10-06T01:37:39.195Z,101537.34
2022-10-06T01:40:09.659Z,101538.59
2022-10-06T01:42:39.959Z,101544.38
2022-10-06T01:45:10.408Z,101540.28
2022-10-06T01:47:40.541Z,101546.44
2022-10-06T01:50:10.395Z,101538.88
2022-10-06T01:52:40.516Z,101544.44
2022-10-06T01:55:10.645Z,101548.34
2022-10-06T01:57:43.548Z,101547.16
2022-10-06T02:00:14.120Z,101544.09
2022-10-06T02:02:42.678Z,101545.53
2022-10-06T02:05:11.130Z,101554.00
2022-10-06T02:07:41.244Z,101549.50
2022-10-06T02:10:10.525Z,101555.88
2022-10-06T02:12:38.497Z,101559.81
2022-10-06T02:15:08.129Z,101554.06
2022-10-06T02:17:37.051Z,101557.97
2022-10-06T02:20:05.620Z,101574.19
2022-10-06T02:22:34.177Z,101571.53
2022-10-06T02:25:04.071Z,101576.28
2022-10-06T02:27:32.021Z,101580.19
2022-10-06T02:30:00.220Z,101587.78
2022-10-06T02:32:35.986Z,101592.53
2022-10-06T02:35:05.866Z,101591.94
2022-10-06T02:37:34.788Z,101593.16
2022-10-06T02:40:04.210Z,101601.97
2022-10-06T02:42:32.753Z,101600.56
2022-10-06T02:45:01.194Z,101608.56
2022-10-06T02:47:29.516Z,101614.94
2022-10-06T02:49:57.958Z,101617.00
2022-10-06T02:52:26.403Z,101615.34
2022-10-06T02:54:54.725Z,101615.75
2022-10-06T02:57:24.847Z,101622.34
2022-10-06T02:59:53.285Z,101617.44
2022-10-06T03:02:21.324Z,101619.50
2022-10-06T03:04:49.943Z,101622.56
2022-10-06T03:07:18.852Z,101620.94
2022-10-06T03:09:47.414Z,101640.66
2022-10-06T03:12:15.855Z,101636.34
2022-10-06T03:14:45.383Z,101640.84
2022-10-06T03:17:14.062Z,101648.25
2022-10-06T03:19:43.223Z,101646.59
2022-10-06T03:22:11.794Z,101653.56
2022-10-06T03:24:40.233Z,101650.31
2022-10-06T03:27:08.909Z,101652.56
2022-10-06T03:29:36.884Z,101656.88
2022-10-06T03:32:07.112Z,101662.19
2022-10-06T03:34:35.797Z,101661.78
2022-10-06T03:37:04.002Z,101670.00
2022-10-06T03:39:34.362Z,101672.88
2022-10-06T03:42:02.921Z,101672.06
2022-10-06T03:44:32.444Z,101686.44
2022-10-06T03:47:01.038Z,101686.44
2022-10-06T03:49:31.009Z,101695.63
2022-10-06T03:51:58.978Z,101697.06
2022-10-06T03:54:27.411Z,101694.59
2022-10-06T03:56:56.099Z,101696.25
2022-10-06T03:59:24.417Z,101699.94
2022-10-06T04:01:53.523Z,101707.31
2022-10-06T04:04:22.144Z,101708.16
2022-10-06T04:06:51.543Z,101713.50
2022-10-06T04:09:19.991Z,101713.69
2022-10-06T04:11:48.436Z,101712.03
2022-10-06T04:14:17.719Z,101726.81
2022-10-06T04:16:48.045Z,101722.50
2022-10-06T04:19:17.834Z,101723.94
2022-10-06T04:21:48.676Z,101727.84
2022-10-06T04:24:18.924Z,101733.19
2022-10-06T04:26:49.406Z,101735.41
2022-10-06T04:29:18.322Z,101736.44
2022-10-06T04:31:47.122Z,101735.81
2022-10-06T04:34:15.565Z,101735.22
2022-10-06T04:36:45.211Z,101741.56
2022-10-06T04:39:14.129Z,101746.25
2022-10-06T04:41:47.326Z,101748.72
2022-10-06T04:44:16.054Z,101755.91
2022-10-06T04:46:44.906Z,101757.31
2022-10-06T04:49:19.899Z,101766.56
2022-10-06T04:51:49.840Z,101783.56
2022-10-06T04:54:18.728Z,101781.09
2022-10-06T04:56:48.110Z,101783.16
2022-10-06T04:59:16.549Z,101779.22
2022-10-06T05:01:44.514Z,101782.31
2022-10-06T05:04:12.597Z,101792.53
2022-10-06T05:06:42.955Z,101792.94
2022-10-06T05:09:12.963Z,101799.28
2022-10-06T05:11:40.922Z,101792.53
2022-10-06T05:14:11.038Z,101800.69
2022-10-06T05:16:39.214Z,101804.41
2022-10-06T05:19:08.370Z,101802.75
2022-10-06T05:21:37.204Z,101809.28
2022-10-06T05:24:05.529Z,101814.63
2022-10-06T05:26:35.530Z,101811.34
2022-10-06T05:29:04.098Z,101814.00
2022-10-06T05:31:35.279Z,101816.06
2022-10-06T05:34:03.976Z,101821.19
2022-10-06T05:36:34.165Z,101820.75
2022-10-06T05:39:02.544Z,101817.06
2022-10-06T05:41:33.261Z,101824.22
2022-10-06T05:44:02.182Z,101826.88
2022-10-06T05:46:32.185Z,101823.41
2022-10-06T05:49:03.748Z,101829.56
2022-10-06T05:51:33.628Z,101838.38
2022-10-06T05:54:01.837Z,101835.69
2022-10-06T05:56:32.673Z,101846.56
2022-10-06T05:59:01.718Z,101857.22
2022-10-06T06:01:31.877Z,101857.22
2022-10-06T06:04:03.175Z,101855.59
2022-10-06T06:06:33.409Z,101861.94
2022-10-06T06:09:03.407Z,101866.63
2022-10-06T06:11:33.287Z,101867.03
2022-10-06T06:14:02.927Z,101875.41
2022-10-06T06:16:31.235Z,101873.31
2022-10-06T06:19:01.852Z,101876.19
2022-10-06T06:21:30.422Z,101885.38
2022-10-06T06:23:59.697Z,101891.09
2022-10-06T06:26:29.941Z,101885.78
2022-10-06T06:29:04.521Z,101886.97
2022-10-06T06:31:35.474Z,101889.63
2022-10-06T06:34:07.269Z,101892.31
2022-10-06T06:36:36.968Z,101889.16
2022-10-06T06:39:07.748Z,101893.66
2022-10-06T06:41:38.351Z,101892.69
2022-10-06T06:44:08.954Z,101897.63
2022-10-06T06:46:36.923Z,101901.94
2022-10-06T06:49:07.164Z,101905.84
2022-10-06T06:51:37.883Z,101909.16
2022-10-06T06:54:06.681Z,101913.06
2022-10-06T06:56:36.566Z,101922.31
2022-10-06T06:59:10.911Z,101929.34
2022-10-06T07:01:40.271Z,101931.84
2022-10-06T07:04:09.814Z,101931.91
2022-10-06T07:06:40.537Z,101934.81
2022-10-06T07:09:10.174Z,101936.31
2022-10-06T07:11:40.057Z,101937.75
2022-10-06T07:14:10.419Z,101935.97
2022-10-06T07:16:56.142Z,101942.78
2022-10-06T07:19:43.908Z,101954.28
2022-10-06T07:22:34.185Z,101950.44
2022-10-06T07:25:12.228Z,101957.63
2022-10-06T07:27:43.551Z,101961.59
2022-10-06T07:30:14.391Z,101969.44
2022-10-06T07:32:42.367Z,101970.28
2022-10-06T07:35:12.003Z,101981.81
2022-10-06T07:37:41.281Z,101987.75
2022-10-06T07:40:10.804Z,101992.09
2022-10-06T07:42:49.444Z,101991.06
2022-10-06T07:45:37.120Z,101997.88
2022-10-06T07:48:07.088Z,101996.88
2022-10-06T07:50:38.655Z,101991.97
2022-10-06T07:53:09.491Z,102002.84
2022-10-06T07:55:40.008Z,102007.16
2022-10-06T07:58:12.620Z,102008.81
2022-10-06T08:00:41.076Z,102009.28
2022-10-06T08:03:10.272Z,102011.31
2022-10-06T08:05:40.857Z,102018.31
2022-10-06T08:08:08.909Z,102024.28
2022-10-06T08:10:36.870Z,102022.00
2022-10-06T08:13:07.123Z,102028.16
2022-10-06T08:15:35.196Z,102036.38
2022-10-06T08:18:12.260Z,102036.38
2022-10-06T08:20:51.634Z,102036.97
2022-10-06T08:23:20.195Z,102029.16
2022-10-06T08:25:53.803Z,102035.75
2022-10-06T08:28:22.791Z,102043.31
2022-10-06T08:30:52.494Z,102045.38
2022-10-06T08:33:22.151Z,102044.75
2022-10-06T08:35:53.926Z,102048.66
2022-10-06T08:38:22.011Z,102053.38
2022-10-06T08:40:50.932Z,102042.66
2022-10-06T08:43:25.032Z,102058.91
2022-10-06T08:46:01.734Z,102057.06
2022-10-06T08:48:38.941Z,102053.75
2022-10-06T08:51:24.303Z,102056.41
2022-10-06T08:54:04.624Z,102059.88
2022-10-06T08:56:37.988Z,102072.44
2022-10-06T08:59:10.505Z,102070.31
2022-10-06T09:01:43.653Z,102075.66
2022-10-06T09:04:23.010Z,102073.16
2022-10-06T09:07:06.613Z,102073.94
2022-10-06T09:09:58.839Z,102084.84
2022-10-06T09:12:34.780Z,102083.78
2022-10-06T09:15:11.724Z,102080.88
2022-10-06T09:17:47.370Z,102087.88
2022-10-06T09:20:20.795Z,102090.13
2022-10-06T09:22:53.128Z,102088.69
2022-10-06T09:25:26.731Z,102099.38
2022-10-06T09:27:56.684Z,102095.03
2022-10-06T09:30:25.208Z,102110.47
2022-10-06T09:32:59.991Z,102112.06
2022-10-06T09:35:30.577Z,102108.34
2022-10-06T09:38:08.246Z,102105.47
2022-10-06T09:40:41.161Z,102095.94
2022-10-06T09:43:22.190Z,102103.78
2022-10-06T09:45:51.705Z,102109.50
2022-10-06T09:48:25.162Z,102105.38
2022-10-06T09:51:13.558Z,102106.56
2022-10-06T09:53:44.753Z,102108.22
2022-10-06T09:56:18.873Z,102114.78
2022-10-06T09:59:00.477Z,102113.09
2022-10-06T10:05:28.247Z,102117.97
2022-10-06T10:08:10.124Z,102118.75
2022-10-06T10:10:40.568Z,102124.13
2022-10-06T10:13:21.207Z,102119.13
2022-10-06T10:15:55.495Z,102115.78
2022-10-06T10:18:31.221Z,102112.06
2022-10-06T10:21:07.818Z,102122.13
2022-10-06T10:23:41.236Z,102119.84
2022-10-06T10:26:37.105Z,102124.31
2022-10-06T10:29:33.863Z,102119.72
2022-10-06T10:32:16.976Z,102115.13
2022-10-06T10:35:11.549Z,102116.34
2022-10-06T10:37:46.710Z,102119.59
2022-10-06T10:40:28.834Z,102119.75
2022-10-06T10:43:18.158Z,102113.97
2022-10-06T10:45:52.145Z,102117.03
2022-10-06T10:48:26.096Z,102108.75
2022-10-06T10:51:01.603Z,102117.38
2022-10-06T10:53:40.241Z,102120.22
2022-10-06T10:56:13.374Z,102117.34
2022-10-06T10:58:46.056Z,102111.28
2022-10-06T11:01:23.932Z,102115.63
2022-10-06T11:03:57.900Z,102115.00
2022-10-06T11:06:55.259Z,102120.75
2022-10-06T11:09:30.779Z,102110.63
2022-10-06T11:12:14.459Z,102114.13
2022-10-06T11:14:52.384Z,102114.47
2022-10-06T11:17:33.305Z,102112.63
2022-10-06T11:20:11.597Z,102118.38
2022-10-06T11:22:48.191Z,102113.81
2022-10-06T11:25:24.199Z,102108.00
2022-10-06T11:28:00.383Z,102111.28
2022-10-06T11:30:32.477Z,102117.47
2022-10-06T11:33:09.101Z,102109.19
2022-10-06T11:35:39.818Z,102104.63
2022-10-06T11:38:17.002Z,102109.34
2022-10-06T11:41:10.062Z,102098.34
2022-10-06T11:43:47.498Z,102098.94
2022-10-06T11:46:32.483Z,102102.91
2022-10-06T11:49:46.536Z,102106.78
2022-10-06T11:52:37.779Z,102098.72
2022-10-06T11:55:16.429Z,102089.84
2022-10-06T11:58:41.296Z,102098.72
2022-10-06T12:01:51.922Z,102098.59
2022-10-06T12:04:24.543Z,102084.09
2022-10-06T12:07:03.108Z,102088.06
2022-10-06T12:09:49.632Z,102084.78
2022-10-06T12:12:47.728Z,102087.72
2022-10-06T12:18:46.570Z,102073.81
2022-10-06T12:21:51.001Z,102075.22
2022-10-06T12:24:32.043Z,102074.41
2022-10-06T12:27:27.368Z,102069.09
2022-10-06T12:30:04.208Z,102063.53
2022-10-06T12:32:50.172Z,102064.69
2022-10-06T12:35:27.859Z,102064.50
2022-10-06T12:38:06.423Z,102061.56
2022-10-06T12:40:47.255Z,102065.88
2022-10-06T12:43:29.690Z,102067.53
2022-10-06T12:46:04.283Z,102061.56
2022-10-06T12:48:41.805Z,102061.81
2022-10-06T12:51:26.248Z,102056.19
2022-10-06T12:54:05.462Z,102053.06
2022-10-06T12:56:36.045Z,102064.38
2022-10-06T12:59:25.353Z,102054.09
2022-10-06T13:01:56.674Z,102056.56
2022-10-06T13:04:36.545Z,102059.47
2022-10-06T13:07:15.522Z,102055.97
2022-10-06T13:09:44.323Z,102058.06
2022-10-06T13:12:31.727Z,102051.88
2022-10-06T13:15:20.181Z,102057.09
2022-10-06T13:17:53.088Z,102044.13
2022-10-06T13:20:24.891Z,102046.81
2022-10-06T13:23:07.391Z,102044.59
2022-10-06T13:25:43.745Z,102042.72
2022-10-06T13:28:31.716Z,102041.53
2022-10-06T13:33:39.663Z,102038.69
2022-10-06T13:40:03.061Z,102038.31
2022-10-06T13:42:36.081Z,102033.19
2022-10-06T13:45:05.593Z,102033.78
2022-10-06T13:47:34.397Z,102034.97
2022-10-06T13:50:06.133Z,102032.03
2022-10-06T13:52:37.281Z,102025.78
2022-10-06T13:55:16.096Z,102034.81
2022-10-06T13:57:46.658Z,102024.41
2022-10-06T14:00:22.046Z,102035.06
2022-10-06T14:02:51.244Z,102033.56
2022-10-06T14:05:41.975Z,102033.09
2022-10-06T14:08:20.140Z,102031.72
2022-10-06T14:10:52.663Z,102027.16
2022-10-06T14:13:24.458Z,102030.03
2022-10-06T14:15:59.751Z,102022.47
2022-10-06T14:18:35.145Z,102015.59
2022-10-06T14:21:36.284Z,102022.84
2022-10-06T14:24:29.519Z,102023.03
2022-10-06T14:27:13.310Z,102025.16
2022-10-06T14:29:49.972Z,102032.00
2022-10-06T14:32:39.878Z,102030.63
2022-10-06T14:35:23.036Z,102028.38
2022-10-06T14:38:01.921Z,102022.44
2022-10-06T15:56:12.305Z,101982.56
2022-10-06T15:58:41.346Z,101983.00
2022-10-06T16:01:24.232Z,101985.09
2022-10-06T16:03:54.072Z,101978.69
2022-10-06T16:06:30.674Z,101980.31
2022-10-06T16:08:58.764Z,101977.06
2022-10-06T16:11:28.769Z,101974.38
2022-10-06T16:13:57.080Z,101972.75
2022-10-06T16:16:25.141Z,101968.41
2022-10-06T16:18:53.851Z,101972.75
2022-10-06T16:21:21.928Z,101968.41
2022-10-06T16:23:54.093Z,101971.09
2022-10-06T16:26:23.616Z,101962.69
2022-10-06T16:28:53.382Z,101965.59
2022-10-06T16:31:22.342Z,101975.72
2022-10-06T16:33:50.627Z,101964.41
2022-10-06T16:36:20.022Z,101965.41
2022-10-06T16:38:52.063Z,101971.84
2022-10-06T16:41:21.584Z,101961.56
2022-10-06T16:43:51.230Z,101960.16
2022-10-06T16:46:23.434Z,101965.72
2022-10-06T16:48:53.274Z,101960.19
2022-10-06T16:51:23.032Z,101952.59
2022-10-06T16:53:53.523Z,101961.31
2022-10-06T16:56:25.238Z,101950.22
2022-10-06T16:58:55.211Z,101951.09
2022-10-06T17:01:27.601Z,101958.78
2022-10-06T17:03:59.869Z,101950.78
2022-10-06T17:06:28.331Z,101959.75
2022-10-06T17:08:56.768Z,101953.41
2022-10-06T17:11:26.091Z,101960.47
2022-10-06T17:13:57.136Z,101961.38
2022-10-06T17:16:28.465Z,101960.16
2022-10-06T17:18:58.820Z,101965.59
2022-10-06T17:21:44.926Z,101961.91
2022-10-06T17:24:14.182Z,101969.78
2022-10-06T17:26:44.308Z,101966.13
2022-10-06T17:29:15.628Z,101964.06
2022-10-06T17:31:47.894Z,101978.13
2022-10-06T17:34:21.188Z,101970.16
2022-10-06T17:36:51.416Z,101966.50
2022-10-06T17:39:21.999Z,101967.59
2022-10-06T17:41:52.536Z,101974.19
2022-10-06T17:44:23.662Z,101975.06
2022-10-06T17:46:55.247Z,101977.34
2022-10-06T17:49:24.642Z,101973.06
2022-10-06T17:51:54.406Z,101975.59
2022-10-06T17:54:24.423Z,101976.41
2022-10-06T17:56:55.369Z,101976.03
2022-10-06T17:59:25.273Z,101971.53
2022-10-06T18:01:58.113Z,101977.31
2022-10-06T18:04:27.250Z,101971.16
2022-10-06T18:06:57.140Z,101969.13
2022-10-06T18:09:26.100Z,101962.78
2022-10-06T18:11:56.618Z,101967.09
2022-10-06T18:14:26.594Z,101967.72
2022-10-06T18:16:58.907Z,101967.53
2022-10-06T18:19:30.120Z,101970.66
2022-10-06T18:22:00.262Z,101972.13
2022-10-06T18:24:30.328Z,101970.28
2022-10-06T18:27:00.607Z,101973.38
2022-10-06T18:29:30.317Z,101974.00
2022-10-06T18:32:40.271Z,101966.41
2022-10-06T18:37:37.405Z,101968.50
2022-10-06T18:40:08.893Z,101965.19
2022-10-06T18:42:38.127Z,101957.19
2022-10-06T18:45:24.692Z,101959.25
2022-10-06T18:48:12.231Z,101959.06
2022-10-06T18:50:40.299Z,101955.38
2022-10-06T18:53:08.501Z,101961.97
2022-10-06T18:55:36.942Z,101956.19
2022-10-06T18:58:06.511Z,101962.97
2022-10-06T19:00:35.265Z,101956.44
2022-10-06T19:03:04.672Z,101959.50
2022-10-06T19:05:32.641Z,101962.59
2022-10-06T19:08:01.071Z,101951.69
2022-10-06T19:10:29.902Z,101947.81
2022-10-06T19:12:58.926Z,101950.84
2022-10-06T19:15:26.882Z,101960.94
2022-10-06T19:17:55.442Z,101956.00
2022-10-06T19:20:25.445Z,101952.72
2022-10-06T19:22:53.645Z,101955.78
2022-10-06T19:25:22.326Z,101953.34
2022-10-06T19:27:51.248Z,101964.41
2022-10-06T19:30:19.570Z,101961.16
2022-10-06T19:32:48.134Z,101951.06
2022-10-06T19:35:18.136Z,101952.28
2022-10-06T19:37:48.017Z,101949.22
2022-10-06T19:40:16.099Z,101947.16
2022-10-06T19:42:49.221Z,101961.75
2022-10-06T19:45:19.224Z,101960.50
2022-10-06T19:47:47.589Z,101963.59
2022-10-06T19:50:18.387Z,101959.69
2022-10-06T19:52:48.031Z,101960.72
2022-10-06T19:55:16.714Z,101959.47
2022-10-06T19:57:44.962Z,101954.53
2022-10-06T20:00:14.556Z,101960.06
2022-10-06T20:02:43.859Z,101956.97
2022-10-06T20:05:13.480Z,101958.22
2022-10-06T20:07:42.662Z,101956.16
2022-10-06T20:10:12.411Z,101954.50
2022-10-06T20:12:41.989Z,101955.13
2022-10-06T20:15:11.209Z,101955.72
2022-10-06T20:17:41.979Z,101964.13
2022-10-06T20:20:11.457Z,101956.31
2022-10-06T20:22:39.546Z,101957.72
2022-10-06T20:25:08.582Z,101961.44
2022-10-06T20:27:38.345Z,101959.97
2022-10-06T20:30:07.501Z,101960.56
2022-10-06T20:32:35.946Z,101961.59
2022-10-06T20:35:04.987Z,101958.53
2022-10-06T20:37:33.548Z,101955.19
2022-10-06T20:40:19.185Z,101958.28
2022-10-06T20:42:50.243Z,101962.97
2022-10-06T20:45:18.435Z,101970.34
2022-10-06T20:47:48.006Z,101964.59
2022-10-06T20:50:16.639Z,101965.78
2022-10-06T20:52:44.604Z,101962.72
2022-10-06T20:55:13.528Z,101956.97
2022-10-06T20:57:42.576Z,101961.69
2022-10-06T21:00:14.977Z,101959.19
2022-10-06T21:02:42.997Z,101954.28
2022-10-06T21:05:11.372Z,101962.66
2022-10-06T21:07:40.293Z,101957.53
2022-10-06T21:10:09.577Z,101955.88
2022-10-06T21:12:38.521Z,101946.22
2022-10-06T21:15:07.662Z,101947.25
2022-10-06T21:17:37.062Z,101942.94
2022-10-06T21:20:06.463Z,101940.66
2022-10-06T21:22:34.426Z,101940.03
2022-10-06T21:25:02.390Z,101942.72
2022-10-06T21:27:30.591Z,101933.06
2022-10-06T21:29:58.794Z,101934.09
2022-10-06T21:32:26.877Z,101936.13
2022-10-06T21:34:56.636Z,101934.47
2022-10-06T21:37:24.749Z,101925.88
2022-10-06T21:39:53.063Z,101919.06
2022-10-06T21:42:21.004Z,101920.91
2022-10-06T21:44:49.085Z,101926.47
2022-10-06T21:47:17.974Z,101918.03
2022-10-06T21:49:46.091Z,101921.72
2022-10-06T21:52:15.491Z,101922.53
2022-10-06T21:54:43.693Z,101925.56
2022-10-06T21:57:15.385Z,101921.47
2022-10-06T21:59:43.457Z,101924.16
2022-10-06T22:02:11.940Z,101928.66
2022-10-06T22:04:40.460Z,101928.84
2022-10-06T22:07:08.662Z,101926.38
2022-10-06T22:09:38.430Z,101922.88
2022-10-06T22:12:06.748Z,101922.44
2022-10-06T22:14:34.837Z,101915.69
2022-10-06T22:17:05.197Z,101916.69
2022-10-06T22:19:33.273Z,101917.69
2022-10-06T22:22:01.240Z,101917.91
2022-10-06T22:24:29.798Z,101911.13
2022-10-06T22:26:59.926Z,101909.31
2022-10-06T22:29:28.131Z,101910.50
2022-10-06T22:31:58.297Z,101908.03
2022-10-06T22:34:26.926Z,101902.06
2022-10-06T22:36:54.889Z,101905.75
2022-10-06T22:39:23.330Z,101905.97
2022-10-06T22:41:51.296Z,101899.00
2022-10-06T22:44:20.694Z,101891.00
2022-10-06T22:46:49.299Z,101896.50
2022-10-06T22:49:17.459Z,101898.56
2022-10-06T22:51:45.420Z,101889.09
2022-10-06T22:54:19.263Z,101892.59
2022-10-06T22:56:47.585Z,101889.50
2022-10-06T22:59:15.549Z,101886.19
2022-10-06T23:01:45.316Z,101886.19
2022-10-06T23:04:13.270Z,101880.25
2022-10-06T23:06:41.235Z,101876.97
2022-10-06T23:09:09.806Z,101876.31
2022-10-06T23:11:37.879Z,101866.06
2022-10-06T23:14:05.843Z,101867.25
2022-10-06T23:16:34.489Z,101863.75
2022-10-06T23:19:03.924Z,101860.50
2022-10-06T23:21:32.855Z,101858.19
2022-10-06T23:24:01.890Z,101853.25
2022-10-06T23:26:30.211Z,101855.28
2022-10-06T23:29:00.691Z,101849.97
2022-10-06T23:31:29.994Z,101851.38
2022-10-06T23:33:58.656Z,101848.72
2022-10-06T23:36:28.059Z,101839.91
2022-10-06T23:38:56.143Z,101841.13
2022-10-06T23:41:24.222Z,101841.31
2022-10-06T23:43:52.546Z,101839.66
2022-10-06T23:46:20.975Z,101832.91
2022-10-06T23:48:49.312Z,101836.56
2022-10-06T23:51:17.272Z,101830.63
2022-10-06T23:53:47.395Z,101828.16
2022-10-06T23:56:15.594Z,101825.66
2022-10-06T23:58:44.036Z,101829.72
